Bilbao, Spain

8:56 PM CEST on August 27, 2014 (GMT +0200)
Campo Volantin | Change Station
CLOSE
Current Station
Personal Weather Station
Location: Bilbao, PAíS VASCO
Elevation: 200 ft
Nearby Weather Stations

Elev 200 ft 43.27 °N, 2.93 °W | Updated 3 minutes ago

Clear
Clear
76.4 °F
Feels Like 78 °F
N
2.0
Wind Variable Wind from NW
Gusts 7.0 mph

Today
High -- | Low -- °F
--% Chance of Precip.
Yesterday
High -- | Low -- °F
Precip. -- in
7:30 AM 8:55 PM
Waxing Crescent, 4% visible
Pressure 29.98 in
Visibility -9999.0 miles
Clouds
Heat Index 78 °F
Dew Point 68 °F
Humidity 74%
Rainfall 0.01 in
Snow Depth Not available.
UV Not available.
Pollen Not available.
Air Quality Not available.
Flu Activity Not available.
METAR LEBB 271830Z 02003KT 330V060 CAVOK 26/19 Q1015 NOSIG

More Conditions Fewer Conditions

Pressure 29.98 in
Visibility -9999.0 miles
Clouds
Heat Index 78 °F
Dew Point 68 °F
Humidity 74%
Rainfall 0.01 in
Snow Depth Not available.
UV Not available.
Pollen Not available.
Air Quality Not available.
Flu Activity Not available.
METAR LEBB 271830Z 02003KT 330V060 CAVOK 26/19 Q1015 NOSIG

More Conditions Fewer Conditions

10-Day Weather Forecast

Almanac

Astronomy

Aug. 27, 2014 Rise Set
Actual Time 7:30 AM CEST 8:55 PM CEST
Civil Twilight 7:00 AM CEST 9:25 PM CEST
Nautical Twilight 6:24 AM CEST 10:01 PM CEST
Astronomical Twilight 5:46 AM CEST 10:39 PM CEST
Moon 9:16 AM CEST 9:35 PM CEST
Length Of Visible Light 14h 25m
Length of Day
13h 25m
Tomorrow will be 2m 47s shorter.
Waxing Crescent, 4% of the Moon is Illuminated
Today
Waxing Crescent
Sep 2
First Quarter
Sep 8
Full
Sep 15
Last Quarter
Sep 24
New

Today's Extremes

Country Highs Country Lows

Community

WunderPhotos

Upload Photos

1,747,752 photos uploaded!

Nearby

Snow Depth

Not available.

Earthquake Activity

City Distance Mag. Time & Date
No recent earthquake activity has been reported nearby.
Minimum magnitude displayed is 2.5.

Coastal Water Temperatures

Place Temperature
No Stations Reporting

Nearby Weather Stations